URSS

Sochi International Airport

Sochi, Russian Federation
TAF URSS 200757Z 2009/2109 05005MPS 9999 SCT030CB BKN100 TEMPO 2009/2015 12007MPS -SHRA
Issued Valid From Valid To
Jan-20 @ 07:57 UTC
(3 hours ago)
Jan-20 @ 09:00 UTC
(2 hours ago)
Jan-21 @ 09:00 UTC
(in 22 hours)
Jan-20 @ 09:00 to Jan-21 @ 09:00
TAF URSS 200757Z 2009/2109 05005MPS 9999 SCT030CB BKN100
Wind Visibility Clouds
50° at 10 knots 10,000+ meters
  • Scattered at 3,000' AGL
  • Broken at 10,000' AGL
Temporary Jan-20 @ 09:00 to Jan-20 @ 15:00
TEMPO 2009/2015 12007MPS -SHRA
Wind Conditions
120° at 14 knots
  • Light Rain
TAF URSS 200757Z 2009/2109 05005MPS 9999 SCT030CB BKN100 TEMPO 2009/2015 12007MPS -SHRA
Issued Jan-20 @ 07:57 UTC
(3 hours ago)
Valid From Jan-20 @ 09:00 UTC
(2 hours ago)
Valid To Jan-21 @ 09:00 UTC
(in 22 hours)
Jan-20 @ 09:00 - Jan-21 @ 09:00
Wind Visibility
50° at 10 knots 10,000+ meters
Clouds
  • Scattered at 3,000' AGL
  • Broken at 10,000' AGL
Temporary Jan-20 @ 09:00 - Jan-20 @ 15:00
Wind
120° at 14 knots
Conditions
  • Light Rain